Time;durP1;ratioP1;P1;durP2;ratioP2;P2;SDS_P1;SDS_P2;PMS_P1;PMS_P2;Temp;Humidity;BMP_temperature;BMP_pressure;BME280_temperature;BME280_humidity;BME280_pressure;Samples;Min_cycle;Max_cycle;Signal;HPM_P1;HPM_P2
2023/06/23 00:00:00;;;;;;;5.33;4.83;;;17.50;99.90;;;;;;5021320;28;20273;-56
2023/06/23 00:02:27;;;;;;;4.47;4.07;;;17.50;99.90;;;;;;5007604;28;20204;-50
2023/06/23 00:04:54;;;;;;;5.10;4.67;;;17.40;99.90;;;;;;5021544;28;20227;-53
2023/06/23 00:07:21;;;;;;;6.53;4.33;;;17.40;99.90;;;;;;5020359;28;20884;-56
2023/06/23 00:09:48;;;;;;;5.10;4.50;;;17.40;99.90;;;;;;5010915;28;20227;-47
2023/06/23 00:12:14;;;;;;;5.20;4.70;;;17.40;99.90;;;;;;5024798;28;20244;-52
2023/06/23 00:14:43;;;;;;;6.23;5.40;;;17.30;99.90;;;;;;5017225;28;20192;-53
2023/06/23 00:17:10;;;;;;;5.60;5.17;;;17.30;99.90;;;;;;5004629;28;20211;-53
2023/06/23 00:19:36;;;;;;;6.50;5.37;;;17.30;99.90;;;;;;5020726;28;20223;-54
2023/06/23 00:22:04;;;;;;;8.50;5.43;;;17.30;99.90;;;;;;5024306;28;20657;-53
2023/06/23 00:24:32;;;;;;;5.73;5.20;;;17.30;99.90;;;;;;5015853;28;20218;-52
2023/06/23 00:26:59;;;;;;;6.87;6.27;;;17.30;99.90;;;;;;5014837;28;20203;-54
2023/06/23 00:29:26;;;;;;;6.10;5.50;;;17.20;99.90;;;;;;5020131;28;20577;-50
2023/06/23 00:31:54;;;;;;;6.23;5.53;;;17.30;99.90;;;;;;5003413;28;20285;-48
2023/06/23 00:34:20;;;;;;;6.37;5.77;;;17.30;99.90;;;;;;5021966;28;20196;-55
2023/06/23 00:36:47;;;;;;;8.27;6.20;;;17.20;99.90;;;;;;5020940;28;20199;-53
2023/06/23 00:39:14;;;;;;;6.67;5.90;;;17.20;99.90;;;;;;5018519;28;20893;-51
2023/06/23 00:41:42;;;;;;;6.17;5.57;;;17.20;99.90;;;;;;5009357;28;20192;-51
2023/06/23 00:44:11;;;;;;;7.40;6.30;;;17.20;99.90;;;;;;5023189;28;20197;-51
2023/06/23 00:46:39;;;;;;;7.07;5.97;;;17.20;99.90;;;;;;5002346;28;20232;-53
2023/06/23 00:49:07;;;;;;;6.33;5.47;;;17.20;99.90;;;;;;5023932;28;20246;-48
2023/06/23 00:51:34;;;;;;;6.37;5.70;;;17.20;99.90;;;;;;5014333;28;20204;-55
2023/06/23 00:54:04;;;;;;;5.80;5.13;;;17.10;99.90;;;;;;5021237;28;20302;-50
2023/06/23 00:56:32;;;;;;;6.90;5.70;;;17.20;99.90;;;;;;5001756;28;20721;-52
2023/06/23 00:58:59;;;;;;;6.13;5.53;;;17.10;99.90;;;;;;5022838;28;20270;-51
2023/06/23 01:01:26;;;;;;;6.53;5.33;;;17.20;99.90;;;;;;5013066;28;20216;-55
2023/06/23 01:03:54;;;;;;;6.63;5.60;;;17.20;99.90;;;;;;5008206;28;20195;-47
2023/06/23 01:06:30;;;;;;;5.93;5.33;;;17.20;99.90;;;;;;5023124;28;20199;-52
2023/06/23 01:09:05;;;;;;;6.47;5.47;;;17.20;99.90;;;;;;5022694;28;20191;-47
2023/06/23 01:11:41;;;;;;;5.57;5.17;;;17.20;99.90;;;;;;5012763;28;20219;-55
2023/06/23 01:14:13;;;;;;;7.20;5.13;;;17.20;99.90;;;;;;5017645;28;20219;-53
2023/06/23 01:16:47;;;;;;;5.87;5.37;;;17.10;99.90;;;;;;5015982;28;20648;-52
2023/06/23 01:19:25;;;;;;;5.20;4.80;;;17.20;99.90;;;;;;5004789;28;20230;-47
2023/06/23 01:22:08;;;;;;;6.37;5.77;;;17.10;99.90;;;;;;5009423;28;20207;-48
2023/06/23 01:24:48;;;;;;;5.57;5.07;;;17.10;99.90;;;;;;5021081;28;20266;-50
2023/06/23 01:27:45;;;;;;;5.63;5.10;;;17.10;99.90;;;;;;5000781;28;20258;-50
2023/06/23 01:30:16;;;;;;;6.13;5.53;;;17.10;99.90;;;;;;5017003;28;20236;-53
2023/06/23 01:32:49;;;;;;;7.37;5.43;;;17.10;99.90;;;;;;5021076;28;20274;-50
2023/06/23 01:35:22;;;;;;;7.97;5.57;;;17.10;99.90;;;;;;4998448;28;20208;-53
2023/06/23 01:37:52;;;;;;;6.23;5.63;;;17.10;99.90;;;;;;5017034;28;20199;-49
2023/06/23 01:40:24;;;;;;;7.47;5.60;;;17.10;99.90;;;;;;5015835;28;21108;-49
2023/06/23 01:42:53;;;;;;;6.37;5.57;;;17.10;99.90;;;;;;5021289;28;20729;-47
2023/06/23 01:45:24;;;;;;;5.90;5.40;;;17.00;99.90;;;;;;5007727;28;20223;-51
2023/06/23 01:47:52;;;;;;;6.50;5.33;;;17.00;99.90;;;;;;5020239;28;20203;-48
2023/06/23 01:50:21;;;;;;;6.60;6.00;;;17.00;99.90;;;;;;4995941;28;20214;-51
2023/06/23 01:52:51;;;;;;;6.30;5.63;;;17.00;99.90;;;;;;5019817;28;20216;-49
2023/06/23 01:55:19;;;;;;;6.63;4.93;;;17.00;99.90;;;;;;5018570;28;20258;-52
2023/06/23 01:57:48;;;;;;;5.77;5.17;;;16.90;99.90;;;;;;5013294;28;20195;-50
2023/06/23 02:00:18;;;;;;;5.37;4.87;;;16.90;99.90;;;;;;5000285;28;20644;-48
2023/06/23 02:02:48;;;;;;;5.50;4.77;;;16.90;99.90;;;;;;5017305;28;20869;-51
2023/06/23 02:05:17;;;;;;;5.80;4.60;;;16.90;99.90;;;;;;4999064;28;20301;-52
2023/06/23 02:07:47;;;;;;;6.27;4.33;;;16.80;99.90;;;;;;5022882;28;20196;-54
2023/06/23 02:10:16;;;;;;;4.53;4.13;;;16.80;99.90;;;;;;5022017;28;20228;-53
2023/06/23 02:12:45;;;;;;;5.10;4.70;;;16.80;99.90;;;;;;5021810;28;20612;-47
2023/06/23 02:15:14;;;;;;;5.20;4.70;;;16.80;99.90;;;;;;5001530;28;20250;-56
2023/06/23 02:17:43;;;;;;;6.23;4.93;;;16.80;99.90;;;;;;5022729;28;20204;-54
2023/06/23 02:20:15;;;;;;;4.97;4.47;;;16.70;99.90;;;;;;5006081;28;20220;-56
2023/06/23 02:22:46;;;;;;;5.10;4.40;;;16.70;99.90;;;;;;5018534;28;20192;-51
2023/06/23 02:25:14;;;;;;;5.47;4.90;;;16.60;99.90;;;;;;5017986;28;20569;-55
2023/06/23 02:27:42;;;;;;;5.20;4.70;;;16.60;99.90;;;;;;5017646;28;20212;-54
2023/06/23 02:30:10;;;;;;;5.30;4.80;;;16.60;99.90;;;;;;5012902;28;20766;-54
2023/06/23 02:32:37;;;;;;;5.40;4.70;;;16.50;99.90;;;;;;5020758;28;20204;-51
2023/06/23 02:35:04;;;;;;;4.77;4.37;;;16.60;99.90;;;;;;5006076;28;20200;-53
2023/06/23 02:37:36;;;;;;;5.03;4.53;;;16.60;99.90;;;;;;5011491;28;20955;-54
2023/06/23 02:40:09;;;;;;;5.40;4.87;;;16.60;99.90;;;;;;5015141;28;20738;-51
2023/06/23 02:42:41;;;;;;;6.63;5.00;;;16.60;99.90;;;;;;5022377;28;20274;-48
2023/06/23 02:45:15;;;;;;;5.30;4.53;;;16.60;99.90;;;;;;5011575;28;20270;-56
2023/06/23 02:47:43;;;;;;;4.40;4.00;;;16.60;99.90;;;;;;5016468;28;20690;-53
2023/06/23 02:50:12;;;;;;;4.67;3.93;;;16.60;99.90;;;;;;5013129;28;20230;-54
2023/06/23 02:52:45;;;;;;;4.30;3.90;;;16.60;99.90;;;;;;5002584;28;20200;-52
2023/06/23 02:55:14;;;;;;;5.10;4.33;;;16.50;99.90;;;;;;5017613;28;20271;-55
2023/06/23 02:57:42;;;;;;;5.77;3.60;;;16.50;99.90;;;;;;5022541;28;20204;-50
2023/06/23 03:00:19;;;;;;;4.73;3.40;;;16.50;99.90;;;;;;5011264;28;20216;-55
2023/06/23 03:02:52;;;;;;;4.00;3.53;;;16.40;99.90;;;;;;5012441;28;20230;-50
2023/06/23 03:05:21;;;;;;;4.33;3.93;;;16.40;99.90;;;;;;5016905;28;20885;-50
2023/06/23 03:07:51;;;;;;;9.03;3.80;;;16.40;99.90;;;;;;5005882;28;20697;-52
2023/06/23 03:10:19;;;;;;;5.50;4.07;;;16.40;99.90;;;;;;5021821;28;20219;-46
2023/06/23 03:12:47;;;;;;;7.03;3.80;;;16.30;99.90;;;;;;5024382;28;20192;-51
2023/06/23 03:15:16;;;;;;;4.07;3.67;;;16.30;99.90;;;;;;5015872;28;20192;-48
2023/06/23 03:17:43;;;;;;;4.77;3.60;;;16.30;99.90;;;;;;5014693;28;20200;-46
2023/06/23 03:20:24;;;;;;;4.37;3.97;;;16.30;99.90;;;;;;5022345;28;20212;-55
2023/06/23 03:22:58;;;;;;;5.43;4.20;;;16.20;99.90;;;;;;5004708;28;20215;-54
2023/06/23 03:25:27;;;;;;;4.13;3.83;;;16.20;99.90;;;;;;5010850;28;20218;-52
2023/06/23 03:27:57;;;;;;;6.43;4.23;;;16.20;99.90;;;;;;5023157;28;20717;-50
2023/06/23 03:30:26;;;;;;;8.17;4.43;;;16.20;99.90;;;;;;5023303;28;20744;-50
2023/06/23 03:32:58;;;;;;;4.83;4.13;;;16.20;99.90;;;;;;5008300;28;20196;-53
2023/06/23 03:35:27;;;;;;;5.13;3.10;;;16.20;99.90;;;;;;5025134;28;20250;-53
2023/06/23 03:37:59;;;;;;;4.17;3.67;;;16.30;99.90;;;;;;4998575;28;20218;-55
2023/06/23 03:40:27;;;;;;;3.53;3.33;;;16.30;99.90;;;;;;5024040;28;20212;-49
2023/06/23 03:42:57;;;;;;;4.53;3.90;;;16.30;99.90;;;;;;5021578;28;20844;-50
2023/06/23 03:45:26;;;;;;;4.67;3.60;;;16.30;99.90;;;;;;5014996;28;20226;-55
2023/06/23 03:48:02;;;;;;;4.00;3.70;;;16.30;99.90;;;;;;5012786;28;20825;-49
2023/06/23 03:50:33;;;;;;;7.13;3.60;;;16.30;99.90;;;;;;5015305;28;20208;-48
2023/06/23 03:53:03;;;;;;;4.10;3.73;;;16.30;99.90;;;;;;5024042;28;20188;-53
2023/06/23 03:55:32;;;;;;;3.90;3.50;;;16.30;99.90;;;;;;5002315;28;20254;-54
2023/06/23 03:58:03;;;;;;;5.33;3.83;;;16.30;99.90;;;;;;5024961;28;20625;-50
2023/06/23 04:00:32;;;;;;;4.90;4.00;;;16.30;99.90;;;;;;5011747;28;20230;-55
2023/06/23 04:03:01;;;;;;;6.20;4.17;;;16.30;99.90;;;;;;5018667;28;20255;-52
2023/06/23 04:05:31;;;;;;;4.73;3.73;;;16.40;99.90;;;;;;5011072;28;20266;-55
2023/06/23 04:08:01;;;;;;;4.50;4.07;;;16.40;99.90;;;;;;5018617;28;20204;-50
2023/06/23 04:10:31;;;;;;;4.13;3.53;;;16.40;99.90;;;;;;5001835;28;20281;-55
2023/06/23 04:13:01;;;;;;;4.90;3.73;;;16.40;99.90;;;;;;5012994;28;20586;-51
2023/06/23 04:15:28;;;;;;;7.80;3.97;;;16.40;99.90;;;;;;5018745;28;20246;-53
2023/06/23 04:17:57;;;;;;;4.67;3.70;;;16.40;99.90;;;;;;5023716;28;20203;-53
2023/06/23 04:20:25;;;;;;;4.97;3.53;;;16.50;99.90;;;;;;5011268;28;20249;-56
2023/06/23 04:22:53;;;;;;;3.83;3.43;;;16.50;99.90;;;;;;5013626;28;20196;-50
2023/06/23 04:25:22;;;;;;;4.37;3.83;;;16.50;99.90;;;;;;5000673;28;20285;-54
2023/06/23 04:27:53;;;;;;;4.97;4.50;;;16.50;99.90;;;;;;5019963;28;20261;-51
2023/06/23 04:30:22;;;;;;;8.57;3.87;;;16.50;99.90;;;;;;5021405;28;20602;-53
2023/06/23 04:32:49;;;;;;;4.80;4.10;;;16.50;99.90;;;;;;5022548;28;20219;-53
2023/06/23 04:35:16;;;;;;;4.13;3.67;;;16.50;99.90;;;;;;5014606;28;20713;-54
2023/06/23 04:37:47;;;;;;;5.07;3.93;;;16.50;99.90;;;;;;5008020;28;21017;-52
2023/06/23 04:40:21;;;;;;;4.13;3.73;;;16.40;99.90;;;;;;5005882;28;20227;-51
2023/06/23 04:42:52;;;;;;;4.73;3.53;;;16.40;99.90;;;;;;5022140;28;20188;-52
2023/06/23 04:45:25;;;;;;;4.43;4.03;;;16.40;99.90;;;;;;5013428;28;20223;-52
2023/06/23 04:47:56;;;;;;;6.97;4.20;;;16.40;99.90;;;;;;5023430;28;20195;-53
2023/06/23 04:50:26;;;;;;;5.70;4.00;;;16.40;99.90;;;;;;5005048;28;20227;-51
2023/06/23 04:52:56;;;;;;;4.40;4.00;;;16.40;99.90;;;;;;5016421;28;20274;-52
2023/06/23 04:55:30;;;;;;;6.23;3.67;;;16.40;99.90;;;;;;4999738;28;20228;-52
2023/06/23 04:58:00;;;;;;;4.17;3.77;;;16.30;99.90;;;;;;5022047;28;20270;-53
2023/06/23 05:00:27;;;;;;;4.37;3.97;;;16.40;99.90;;;;;;5019633;28;20244;-51
2023/06/23 05:02:57;;;;;;;5.37;3.63;;;16.30;99.90;;;;;;5017003;28;20705;-52
2023/06/23 05:05:27;;;;;;;4.33;3.80;;;16.40;99.90;;;;;;5012690;28;20200;-53
2023/06/23 05:07:57;;;;;;;5.80;3.67;;;16.40;99.90;;;;;;5014749;28;20223;-51
2023/06/23 05:10:26;;;;;;;4.63;3.53;;;16.40;99.90;;;;;;5000748;28;20983;-51
2023/06/23 05:12:55;;;;;;;3.60;3.30;;;16.40;99.90;;;;;;5013326;28;20725;-53
2023/06/23 05:15:25;;;;;;;3.97;3.57;;;16.40;99.90;;;;;;5016680;28;20215;-48
2023/06/23 05:17:56;;;;;;;4.00;3.70;;;16.50;99.90;;;;;;5022422;28;20531;-52
2023/06/23 05:20:25;;;;;;;4.67;4.03;;;16.50;99.90;;;;;;5018979;28;20912;-48
2023/06/23 05:22:55;;;;;;;3.93;3.63;;;16.60;99.90;;;;;;5007797;28;20218;-54
2023/06/23 05:25:29;;;;;;;5.17;4.03;;;16.60;99.90;;;;;;5012498;28;20196;-55
2023/06/23 05:28:00;;;;;;;4.33;3.90;;;16.60;99.90;;;;;;4995870;28;20212;-54
2023/06/23 05:30:29;;;;;;;4.43;3.80;;;16.60;99.90;;;;;;5020742;28;20220;-47
2023/06/23 05:32:59;;;;;;;5.40;3.47;;;16.60;99.90;;;;;;5019713;28;20200;-53
2023/06/23 05:35:27;;;;;;;4.50;4.10;;;16.70;99.90;;;;;;5021889;28;20397;-47
2023/06/23 05:37:54;;;;;;;3.60;3.30;;;16.70;99.90;;;;;;5003759;28;20303;-55
2023/06/23 05:40:21;;;;;;;4.30;3.87;;;16.70;99.90;;;;;;5013956;28;20215;-48
2023/06/23 05:42:48;;;;;;;4.43;3.53;;;16.60;99.90;;;;;;4997686;28;20664;-54
2023/06/23 05:45:15;;;;;;;5.00;4.50;;;16.70;99.90;;;;;;5018795;28;20750;-50
2023/06/23 05:47:48;;;;;;;4.30;3.90;;;16.70;99.90;;;;;;5022168;28;20220;-52
2023/06/23 05:50:21;;;;;;;6.20;4.30;;;16.80;99.90;;;;;;5013723;28;20219;-51
2023/06/23 05:52:56;;;;;;;5.63;4.70;;;16.80;99.90;;;;;;5019355;28;20246;-56
2023/06/23 05:55:25;;;;;;;6.57;4.83;;;16.90;99.90;;;;;;5003506;28;20227;-46
2023/06/23 05:57:59;;;;;;;5.33;4.83;;;16.90;99.90;;;;;;4995213;28;20204;-56
2023/06/23 06:00:30;;;;;;;6.07;5.47;;;16.90;99.90;;;;;;5016599;28;20290;-53
2023/06/23 06:03:01;;;;;;;10.90;5.60;;;17.00;99.90;;;;;;5015079;28;20261;-51
2023/06/23 06:05:29;;;;;;;6.00;5.40;;;17.10;99.90;;;;;;5019230;28;20637;-56
2023/06/23 06:07:57;;;;;;;6.30;5.60;;;17.20;99.90;;;;;;5003562;28;20227;-47
2023/06/23 06:10:26;;;;;;;9.00;5.83;;;17.20;99.90;;;;;;5003298;28;20247;-58
2023/06/23 06:12:55;;;;;;;7.20;6.37;;;17.20;99.90;;;;;;4994091;28;20204;-53
2023/06/23 06:15:22;;;;;;;7.30;6.03;;;17.30;99.90;;;;;;5018987;28;20652;-58
2023/06/23 06:17:51;;;;;;;8.97;6.53;;;17.30;99.90;;;;;;5021975;28;20265;-47
2023/06/23 06:20:22;;;;;;;6.60;5.90;;;17.30;99.90;;;;;;5021057;28;20230;-58
2023/06/23 06:22:51;;;;;;;8.57;6.33;;;17.40;99.90;;;;;;5022073;28;20207;-45
2023/06/23 06:25:18;;;;;;;7.10;5.80;;;17.50;99.90;;;;;;5005395;28;20242;-58
2023/06/23 06:27:48;;;;;;;8.10;7.40;;;17.50;99.90;;;;;;5014671;28;20255;-49
2023/06/23 06:30:16;;;;;;;7.60;6.77;;;17.60;99.90;;;;;;5002231;28;20240;-55
2023/06/23 06:32:45;;;;;;;9.13;7.13;;;17.60;99.90;;;;;;5017836;28;20185;-50
2023/06/23 06:35:13;;;;;;;10.10;7.47;;;17.70;99.90;;;;;;5022195;28;20215;-55
2023/06/23 06:37:47;;;;;;;10.07;8.00;;;17.80;99.90;;;;;;5012181;28;20204;-46
2023/06/23 06:40:18;;;;;;;9.00;6.97;;;17.80;99.90;;;;;;5019557;28;20615;-59
2023/06/23 06:42:45;;;;;;;8.13;6.73;;;17.80;99.90;;;;;;5010434;28;20274;-47
2023/06/23 06:45:13;;;;;;;12.63;8.47;;;17.80;99.90;;;;;;5006990;28;20204;-56
2023/06/23 06:47:43;;;;;;;8.47;6.90;;;17.80;99.90;;;;;;5016135;28;20192;-49
2023/06/23 06:50:13;;;;;;;9.20;7.13;;;17.90;99.90;;;;;;5018475;28;20270;-53
2023/06/23 06:52:42;;;;;;;8.97;6.80;;;17.90;99.90;;;;;;5020311;28;20207;-46
2023/06/23 06:55:15;;;;;;;8.63;7.37;;;18.00;99.90;;;;;;5022424;28;20703;-46
2023/06/23 06:57:43;;;;;;;7.70;7.00;;;18.00;99.90;;;;;;5012938;28;20219;-51
2023/06/23 07:00:10;;;;;;;9.53;7.60;;;17.90;99.90;;;;;;4986153;28;20223;-54
2023/06/23 07:02:39;;;;;;;8.97;7.00;;;17.90;99.90;;;;;;5018815;28;20206;-50
2023/06/23 07:05:06;;;;;;;8.70;6.80;;;18.00;99.90;;;;;;5007580;28;20198;-49
2023/06/23 07:07:33;;;;;;;8.93;7.43;;;18.00;99.90;;;;;;5017210;28;20196;-56
2023/06/23 07:10:01;;;;;;;9.47;6.90;;;18.00;99.90;;;;;;5024111;28;20314;-50
2023/06/23 07:12:28;;;;;;;6.93;5.93;;;18.00;99.90;;;;;;5005050;28;20286;-58
2023/06/23 07:14:55;;;;;;;13.73;7.33;;;18.00;99.90;;;;;;5000135;28;20242;-49
2023/06/23 07:17:22;;;;;;;8.07;6.63;;;18.00;99.90;;;;;;5024387;28;20200;-56
2023/06/23 07:19:49;;;;;;;7.60;6.77;;;18.10;99.90;;;;;;5014925;28;20251;-52
2023/06/23 07:22:16;;;;;;;7.33;6.70;;;18.10;99.90;;;;;;5025434;28;20207;-54
2023/06/23 07:24:43;;;;;;;9.60;7.43;;;18.10;99.90;;;;;;5015421;28;20261;-52
2023/06/23 07:27:11;;;;;;;8.33;7.17;;;18.10;99.90;;;;;;5013286;28;20200;-53
2023/06/23 07:29:38;;;;;;;9.17;8.20;;;18.10;99.90;;;;;;4997660;28;20200;-50
2023/06/23 07:32:06;;;;;;;8.97;8.07;;;18.10;99.90;;;;;;5020476;28;20207;-53
2023/06/23 07:34:33;;;;;;;9.53;8.07;;;18.20;99.90;;;;;;5017324;28;20219;-52
2023/06/23 07:37:00;;;;;;;9.50;8.37;;;18.20;99.90;;;;;;5015737;28;20283;-52
2023/06/23 07:39:27;;;;;;;11.87;9.50;;;18.30;99.90;;;;;;5019235;28;20675;-51
2023/06/23 07:41:54;;;;;;;13.00;9.00;;;18.30;99.90;;;;;;5008061;28;21145;-48
2023/06/23 07:44:22;;;;;;;12.50;9.03;;;18.30;99.90;;;;;;5017492;28;20200;-53
2023/06/23 07:46:49;;;;;;;10.37;8.87;;;18.40;99.90;;;;;;5006548;28;20364;-54
2023/06/23 07:49:15;;;;;;;12.07;10.20;;;18.40;99.90;;;;;;5018234;28;20224;-50
2023/06/23 07:51:42;;;;;;;10.43;9.43;;;18.50;99.90;;;;;;5014968;28;20224;-50
2023/06/23 07:54:09;;;;;;;11.67;9.20;;;18.50;99.90;;;;;;5022688;28;20224;-52
2023/06/23 07:56:36;;;;;;;14.53;9.87;;;18.60;99.90;;;;;;5017067;28;20553;-53
2023/06/23 07:59:03;;;;;;;12.27;9.33;;;18.70;99.90;;;;;;5003902;28;20250;-52
2023/06/23 08:01:31;;;;;;;12.37;9.67;;;18.70;99.90;;;;;;4998629;28;20243;-53
2023/06/23 08:03:58;;;;;;;9.93;8.93;;;18.80;99.90;;;;;;5021091;28;20242;-54
2023/06/23 08:06:25;;;;;;;13.87;9.73;;;18.80;99.90;;;;;;5019970;28;20212;-54
2023/06/23 08:08:51;;;;;;;11.67;9.30;;;18.90;99.90;;;;;;5017550;28;20231;-51
2023/06/23 08:11:18;;;;;;;9.30;8.30;;;18.90;99.90;;;;;;5020123;28;20620;-54
2023/06/23 08:13:45;;;;;;;9.13;8.23;;;18.90;99.90;;;;;;5004765;28;20657;-55
2023/06/23 08:16:12;;;;;;;11.50;8.87;;;18.90;99.90;;;;;;5024095;28;20212;-51
2023/06/23 08:18:40;;;;;;;9.27;8.27;;;18.90;99.90;;;;;;4999363;28;20231;-54
2023/06/23 08:21:07;;;;;;;8.67;7.77;;;19.00;99.90;;;;;;5021842;28;20772;-51
2023/06/23 08:23:34;;;;;;;9.70;7.47;;;19.00;99.90;;;;;;5009256;28;20319;-54
2023/06/23 08:26:01;;;;;;;9.00;7.73;;;19.00;99.90;;;;;;5015296;28;20254;-53
2023/06/23 08:28:28;;;;;;;8.70;7.80;;;19.00;99.90;;;;;;5016685;28;20202;-53
2023/06/23 08:30:55;;;;;;;8.93;7.77;;;19.00;99.90;;;;;;5004009;28;20239;-52
2023/06/23 08:33:22;;;;;;;10.40;7.83;;;19.00;99.90;;;;;;5000446;28;20242;-54
2023/06/23 08:35:50;;;;;;;11.57;8.30;;;19.00;99.90;;;;;;5013669;28;20239;-54
2023/06/23 08:38:17;;;;;;;8.97;7.70;;;19.00;99.90;;;;;;5014767;28;20623;-52
2023/06/23 08:40:46;;;;;;;7.53;6.83;;;19.00;99.90;;;;;;5021376;28;20223;-51
2023/06/23 08:43:13;;;;;;;7.33;6.57;;;19.00;99.90;;;;;;5016880;28;20192;-50
2023/06/23 08:45:42;;;;;;;7.73;7.03;;;18.90;99.90;;;;;;5002990;28;20448;-51
2023/06/23 08:48:09;;;;;;;9.13;6.77;;;18.90;99.90;;;;;;4999537;28;20714;-52
2023/06/23 08:50:36;;;;;;;7.80;7.10;;;18.90;99.90;;;;;;5005822;28;20224;-52
2023/06/23 08:53:05;;;;;;;7.17;6.47;;;18.90;99.90;;;;;;5017799;28;20605;-54
2023/06/23 08:55:33;;;;;;;8.77;7.23;;;18.90;99.90;;;;;;5018436;28;20316;-53
2023/06/23 08:58:01;;;;;;;7.77;6.30;;;18.90;99.90;;;;;;5022497;28;20196;-49
2023/06/23 09:00:28;;;;;;;7.40;6.60;;;18.90;99.90;;;;;;4995065;28;20269;-53
2023/06/23 09:02:55;;;;;;;11.10;7.53;;;18.90;99.90;;;;;;5010731;28;20317;-54
2023/06/23 09:05:22;;;;;;;17.00;8.27;;;19.00;99.90;;;;;;4995209;28;20285;-53
2023/06/23 09:07:50;;;;;;;10.50;8.37;;;19.00;99.90;;;;;;5007170;28;20215;-53
2023/06/23 09:10:18;;;;;;;8.07;6.77;;;19.00;99.90;;;;;;5020329;28;20255;-50
2023/06/23 09:13:13;;;;;;;8.87;7.87;;;19.10;99.90;;;;;;5012774;28;20224;-51
2023/06/23 09:15:40;;;;;;;8.97;8.07;;;19.10;99.90;;;;;;5012701;28;20703;-50
2023/06/23 09:18:09;;;;;;;9.90;8.90;;;19.20;99.90;;;;;;5013517;28;20232;-54
2023/06/23 09:20:38;;;;;;;9.33;8.47;;;19.20;99.90;;;;;;4997322;28;20804;-52
2023/06/23 09:23:07;;;;;;;10.23;8.93;;;19.30;99.90;;;;;;5009551;28;20216;-53
2023/06/23 09:25:43;;;;;;;9.87;8.87;;;19.20;99.90;;;;;;5015331;28;20274;-51
2023/06/23 09:28:22;;;;;;;11.40;8.90;;;19.30;99.90;;;;;;5011945;28;20200;-52
2023/06/23 09:30:49;;;;;;;10.33;9.37;;;19.30;99.90;;;;;;5013571;28;20234;-52
2023/06/23 09:33:19;;;;;;;12.97;10.03;;;19.30;99.90;;;;;;5010068;28;20204;-53
2023/06/23 09:35:48;;;;;;;10.50;9.47;;;19.40;99.90;;;;;;4996208;28;20219;-50
2023/06/23 09:38:17;;;;;;;11.10;9.77;;;19.40;99.90;;;;;;5017609;28;20192;-52
2023/06/23 09:40:45;;;;;;;11.63;10.43;;;19.50;99.90;;;;;;5004762;28;20381;-53
2023/06/23 09:43:15;;;;;;;12.13;10.93;;;19.60;99.90;;;;;;5015604;28;20259;-52
2023/06/23 09:45:42;;;;;;;12.07;10.87;;;19.70;99.90;;;;;;5013687;28;20984;-55
2023/06/23 09:48:17;;;;;;;12.40;10.20;;;19.70;99.90;;;;;;5004632;28;20219;-52
2023/06/23 09:50:44;;;;;;;10.80;9.37;;;19.70;99.90;;;;;;5001724;28;20227;-54
2023/06/23 09:53:12;;;;;;;10.50;9.10;;;19.60;99.90;;;;;;5020937;28;20550;-52
2023/06/23 09:55:39;;;;;;;10.83;9.73;;;19.70;99.90;;;;;;5003184;28;20227;-55
2023/06/23 09:58:10;;;;;;;10.40;9.50;;;19.70;99.90;;;;;;5020775;28;20629;-50
2023/06/23 10:00:37;;;;;;;11.17;9.90;;;19.70;99.90;;;;;;5006017;28;20298;-52
2023/06/23 10:03:04;;;;;;;9.73;8.73;;;19.80;99.90;;;;;;5006055;28;20638;-51
2023/06/23 10:05:35;;;;;;;9.80;8.17;;;19.90;99.90;;;;;;5017136;28;20207;-53
2023/06/23 10:08:07;;;;;;;13.20;7.83;;;19.90;99.90;;;;;;5004858;28;20222;-53
2023/06/23 10:10:34;;;;;;;10.57;9.40;;;19.90;99.90;;;;;;5004985;28;20235;-51
2023/06/23 10:13:01;;;;;;;10.30;8.97;;;19.90;99.90;;;;;;5009555;28;20204;-49
2023/06/23 10:15:29;;;;;;;11.63;10.00;;;20.00;99.90;;;;;;5013266;28;20841;-53
2023/06/23 10:17:56;;;;;;;11.87;10.20;;;20.10;99.90;;;;;;5018961;28;20294;-52
2023/06/23 10:20:23;;;;;;;10.17;9.20;;;20.10;99.90;;;;;;5017694;28;20242;-56
2023/06/23 10:22:51;;;;;;;10.77;9.70;;;20.10;99.90;;;;;;5002961;28;20204;-55
2023/06/23 10:25:21;;;;;;;13.50;10.10;;;20.20;99.90;;;;;;5018011;28;20234;-54
2023/06/23 10:27:51;;;;;;;10.57;9.60;;;20.20;99.90;;;;;;5021392;28;20563;-47
2023/06/23 10:30:19;;;;;;;13.83;9.40;;;20.20;99.90;;;;;;5021572;28;20222;-48
2023/06/23 10:32:52;;;;;;;13.03;10.03;;;20.20;99.90;;;;;;5012001;28;20710;-56
2023/06/23 10:35:22;;;;;;;10.57;9.47;;;20.10;99.90;;;;;;5008722;28;20243;-45
2023/06/23 10:37:50;;;;;;;11.07;9.07;;;20.10;99.90;;;;;;4999318;28;20228;-55
2023/06/23 10:40:22;;;;;;;11.50;9.10;;;20.00;99.90;;;;;;5018831;28;20724;-49
2023/06/23 10:42:51;;;;;;;11.32;9.80;;;19.90;99.90;;;;;;5012137;28;20222;-51
2023/06/23 10:45:17;;;;;;;11.63;10.43;;;19.90;99.90;;;;;;5022014;28;20650;-48
2023/06/23 10:47:45;;;;;;;11.30;10.03;;;19.90;99.90;;;;;;5014937;28;20219;-56
2023/06/23 10:50:15;;;;;;;12.50;10.50;;;19.90;99.90;;;;;;5002483;28;20927;-54
2023/06/23 10:52:43;;;;;;;11.70;10.60;;;20.00;99.90;;;;;;5019418;28;20203;-50
2023/06/23 10:55:36;;;;;;;12.10;10.80;;;20.00;99.90;;;;;;4993969;28;20266;-55
2023/06/23 10:58:16;;;;;;;12.70;11.40;;;20.00;99.90;;;;;;5008480;28;20208;-50
2023/06/23 11:00:57;;;;;;;12.57;10.97;;;20.00;99.90;;;;;;5016884;28;20307;-45
2023/06/23 11:03:32;;;;;;;11.60;10.50;;;20.00;99.90;;;;;;5015683;28;20218;-50
2023/06/23 11:06:04;;;;;;;14.13;10.40;;;20.10;99.90;;;;;;5011741;28;20207;-52
2023/06/23 11:08:33;;;;;;;11.47;10.23;;;20.10;99.90;;;;;;4999242;28;20815;-55
2023/06/23 11:11:03;;;;;;;13.10;11.70;;;20.20;99.90;;;;;;5015646;28;20256;-49
2023/06/23 11:13:41;;;;;;;11.17;9.93;;;20.20;99.90;;;;;;5014675;28;20200;-57
2023/06/23 11:16:17;;;;;;;12.10;9.70;;;20.30;99.90;;;;;;5018994;28;20211;-49
2023/06/23 11:18:52;;;;;;;11.37;10.23;;;20.20;99.90;;;;;;5024144;28;20723;-52
2023/06/23 11:21:30;;;;;;;11.57;10.43;;;20.30;99.90;;;;;;5002659;28;20207;-53
2023/06/23 11:24:18;;;;;;;11.70;10.50;;;20.30;99.90;;;;;;4999146;28;20290;-52
2023/06/23 11:26:51;;;;;;;17.93;10.50;;;20.30;99.90;;;;;;5023614;28;20184;-50
2023/06/23 11:29:21;;;;;;;12.77;10.57;;;20.40;99.90;;;;;;5014378;28;20342;-45
2023/06/23 11:32:08;;;;;;;12.30;10.40;;;20.40;99.90;;;;;;5019761;28;20569;-47
2023/06/23 11:34:56;;;;;;;13.77;9.97;;;20.40;99.90;;;;;;5009795;28;20277;-52
2023/06/23 11:37:26;;;;;;;11.33;10.23;;;20.40;99.90;;;;;;5012315;28;20949;-47
2023/06/23 11:39:54;;;;;;;18.60;11.27;;;20.40;99.90;;;;;;5003928;28;20347;-54
2023/06/23 11:42:22;;;;;;;11.53;10.43;;;20.50;99.90;;;;;;5019907;28;20187;-49
2023/06/23 11:44:49;;;;;;;13.43;11.10;;;20.60;99.90;;;;;;5017675;28;20235;-51
2023/06/23 11:47:16;;;;;;;12.27;11.00;;;20.60;99.90;;;;;;5005136;28;20184;-45
2023/06/23 11:49:43;;;;;;;12.57;10.70;;;20.60;99.90;;;;;;5022383;28;20232;-46
2023/06/23 11:52:12;;;;;;;12.60;11.30;;;20.60;99.90;;;;;;5000924;28;21838;-56
2023/06/23 11:54:41;;;;;;;14.80;10.63;;;20.60;99.90;;;;;;4998266;28;20295;-47
2023/06/23 11:57:08;;;;;;;14.10;10.93;;;20.70;99.90;;;;;;5014099;28;20215;-56
2023/06/23 11:59:36;;;;;;;12.65;11.10;;;20.70;99.90;;;;;;5013293;28;20223;-50
2023/06/23 12:02:03;;;;;;;12.90;10.88;;;20.70;99.90;;;;;;5019899;28;20204;-57
2023/06/23 12:04:31;;;;;;;11.68;10.50;;;20.70;99.90;;;;;;5021437;28;20184;-49
2023/06/23 12:06:59;;;;;;;11.67;10.43;;;20.70;99.90;;;;;;5012251;28;20727;-57
2023/06/23 12:09:26;;;;;;;13.52;11.40;;;20.70;99.90;;;;;;4995396;28;20196;-51
2023/06/23 12:11:55;;;;;;;11.23;10.02;;;20.90;99.90;;;;;;5014328;28;20678;-58
2023/06/23 12:14:28;;;;;;;13.85;10.85;;;20.90;99.90;;;;;;5013940;28;20214;-56
2023/06/23 12:17:04;;;;;;;11.73;10.20;;;21.10;99.90;;;;;;5017239;28;20277;-56
2023/06/23 12:19:32;;;;;;;13.90;10.30;;;21.10;99.90;;;;;;5022176;28;20184;-50
2023/06/23 12:21:59;;;;;;;11.85;10.10;;;21.10;99.90;;;;;;5012205;28;20200;-58
2023/06/23 12:24:27;;;;;;;11.98;10.45;;;21.30;99.90;;;;;;5001617;28;20339;-45
2023/06/23 12:26:55;;;;;;;11.45;9.77;;;21.20;99.90;;;;;;5022527;28;20207;-53
2023/06/23 12:29:23;;;;;;;11.63;10.25;;;21.30;99.90;;;;;;5013502;28;20204;-46
2023/06/23 12:31:55;;;;;;;10.52;9.43;;;21.30;99.90;;;;;;5022399;28;20295;-48
2023/06/23 12:34:22;;;;;;;10.40;9.27;;;21.40;99.90;;;;;;5010207;28;20229;-57
2023/06/23 12:36:49;;;;;;;10.70;9.50;;;21.50;99.90;;;;;;5014528;28;20220;-53
2023/06/23 12:39:16;;;;;;;13.07;9.88;;;21.60;99.90;;;;;;4999411;28;20227;-51
2023/06/23 12:41:43;;;;;;;13.88;10.77;;;21.60;99.90;;;;;;5016981;28;20215;-54
2023/06/23 12:44:13;;;;;;;10.95;9.85;;;21.60;99.90;;;;;;5021481;28;20258;-45
2023/06/23 12:46:42;;;;;;;11.02;9.93;;;21.60;99.90;;;;;;5007134;28;20287;-50
2023/06/23 12:49:11;;;;;;;11.65;9.32;;;21.70;99.90;;;;;;5023240;28;20258;-50
2023/06/23 12:51:39;;;;;;;10.63;9.32;;;21.80;99.90;;;;;;5011952;28;20570;-59
2023/06/23 12:54:06;;;;;;;13.73;9.90;;;22.00;99.90;;;;;;5020630;28;20200;-54